createdAt,value
2023-01-12T00:00:06.090Z,100558.88
2023-01-12T00:01:15.552Z,100558.88
2023-01-12T00:02:20.110Z,100558.94
2023-01-12T00:03:22.623Z,100556.44
2023-01-12T00:04:25.026Z,100555.53
2023-01-12T00:05:27.487Z,100560.66
2023-01-12T00:06:29.913Z,100567.84
2023-01-12T00:07:33.433Z,100564.19
2023-01-12T00:08:35.765Z,100564.22
2023-01-12T00:09:38.738Z,100571.44
2023-01-12T00:10:41.171Z,100568.03
2023-01-12T00:11:43.336Z,100565.31
2023-01-12T00:12:45.792Z,100563.50
2023-01-12T00:13:48.395Z,100559.06
2023-01-12T00:14:51.882Z,100561.72
2023-01-12T00:16:21.273Z,100559.81
2023-01-12T00:17:23.499Z,100565.22
2023-01-12T00:18:26.156Z,100558.19
2023-01-12T00:19:28.389Z,100558.38
2023-01-12T00:20:30.558Z,100551.38
2023-01-12T00:21:40.159Z,100555.91
2023-01-12T00:22:42.312Z,100557.69
2023-01-12T00:23:44.888Z,100551.66
2023-01-12T00:24:49.570Z,100557.69
2023-01-12T00:25:52.924Z,100560.19
2023-01-12T00:26:56.788Z,100564.59
2023-01-12T00:27:58.959Z,100563.72
2023-01-12T00:29:01.387Z,100558.53
2023-01-12T00:30:03.719Z,100561.53
2023-01-12T00:31:08.198Z,100556.13
2023-01-12T00:32:16.415Z,100556.75
2023-01-12T00:33:20.169Z,100561.88
2023-01-12T00:34:23.160Z,100557.56
2023-01-12T00:35:25.354Z,100566.53
2023-01-12T00:36:27.646Z,100560.25
2023-01-12T00:37:29.834Z,100557.69
2023-01-12T00:38:34.049Z,100561.94
2023-01-12T00:39:43.074Z,100558.56
2023-01-12T00:40:48.015Z,100562.00
2023-01-12T00:42:08.990Z,100562.13
2023-01-12T00:43:30.115Z,100556.00
2023-01-12T00:44:50.890Z,100560.34
2023-01-12T00:45:53.109Z,100563.28
2023-01-12T00:46:55.338Z,100559.56
2023-01-12T00:47:57.489Z,100560.47
2023-01-12T00:48:59.855Z,100558.72
2023-01-12T00:50:02.242Z,100554.25
2023-01-12T00:51:04.705Z,100554.22
2023-01-12T00:52:11.383Z,100558.56
2023-01-12T00:53:15.439Z,100554.22
2023-01-12T00:54:17.655Z,100554.34
2023-01-12T00:55:20.130Z,100552.47
2023-01-12T00:56:22.354Z,100549.81
2023-01-12T00:57:24.993Z,100543.81
2023-01-12T00:58:28.743Z,100545.56
2023-01-12T00:59:31.078Z,100538.50
2023-01-12T01:00:33.613Z,100535.97
2023-01-12T01:01:36.025Z,100539.50
2023-01-12T01:02:38.641Z,100535.03
2023-01-12T01:03:40.825Z,100543.84
2023-01-12T01:04:43.028Z,100547.31
2023-01-12T01:05:45.582Z,100558.97
2023-01-12T01:06:47.776Z,100561.81
2023-01-12T01:07:49.980Z,100568.03
2023-01-12T01:08:52.493Z,100561.16
2023-01-12T01:09:54.722Z,100554.03
2023-01-12T01:11:05.659Z,100553.13
2023-01-12T01:12:07.987Z,100552.22
2023-01-12T01:13:10.252Z,100546.88
2023-01-12T01:14:12.831Z,100559.22
2023-01-12T01:15:15.076Z,100550.31
2023-01-12T01:16:18.396Z,100552.97
2023-01-12T01:17:20.746Z,100553.00
2023-01-12T01:18:22.937Z,100554.66
2023-01-12T01:19:25.587Z,100553.88
2023-01-12T01:20:28.027Z,100553.19
2023-01-12T01:21:30.657Z,100546.22
2023-01-12T01:22:32.821Z,100549.81
2023-01-12T01:23:37.079Z,100550.56
2023-01-12T01:24:39.606Z,100542.53
2023-01-12T01:25:41.974Z,100543.38
2023-01-12T01:26:44.244Z,100538.00
2023-01-12T01:27:46.649Z,100539.59
2023-01-12T01:28:49.225Z,100537.00
2023-01-12T01:29:51.593Z,100543.16
2023-01-12T01:30:53.969Z,100531.59
2023-01-12T01:31:56.180Z,100530.03
2023-01-12T01:32:58.598Z,100528.38
2023-01-12T01:34:00.800Z,100525.66
2023-01-12T01:35:02.989Z,100537.06
2023-01-12T01:36:05.768Z,100528.31
2023-01-12T01:37:07.939Z,100527.41
2023-01-12T01:38:10.347Z,100529.38
2023-01-12T01:39:12.511Z,100527.53
2023-01-12T01:40:15.057Z,100528.63
2023-01-12T01:41:20.651Z,100522.31
2023-01-12T01:42:30.158Z,100527.56
2023-01-12T01:43:48.719Z,100528.69
2023-01-12T01:44:53.452Z,100519.97
2023-01-12T01:46:05.126Z,100522.56
2023-01-12T01:47:19.323Z,100519.88
2023-01-12T01:48:22.993Z,100519.88
2023-01-12T01:49:37.107Z,100523.38
2023-01-12T01:50:42.871Z,100513.75
2023-01-12T01:51:46.569Z,100522.75
2023-01-12T01:52:59.029Z,100524.59
2023-01-12T01:54:03.092Z,100529.00
2023-01-12T01:55:16.103Z,100524.47
2023-01-12T01:56:28.033Z,100528.09
2023-01-12T01:57:43.728Z,100522.75
2023-01-12T01:59:01.073Z,100520.13
2023-01-12T02:00:06.310Z,100527.44
2023-01-12T02:01:09.676Z,100523.75
2023-01-12T02:02:12.665Z,100525.56
2023-01-12T02:03:16.658Z,100515.81
2023-01-12T02:04:18.892Z,100525.53
2023-01-12T02:05:24.813Z,100518.47
2023-01-12T02:06:27.859Z,100518.44
2023-01-12T02:07:30.502Z,100523.91
2023-01-12T02:08:49.340Z,100513.25
2023-01-12T02:09:51.583Z,100511.47
2023-01-12T02:10:56.487Z,100525.59
2023-01-12T02:12:17.459Z,100521.19
2023-01-12T02:13:37.848Z,100529.06
2023-01-12T02:15:05.122Z,100524.59
2023-01-12T02:16:22.904Z,100524.56
2023-01-12T02:18:02.449Z,100526.25
2023-01-12T02:19:32.773Z,100528.31
2023-01-12T02:21:03.188Z,100518.69
2023-01-12T02:22:28.197Z,100520.66
2023-01-12T02:24:02.707Z,100521.59
2023-01-12T02:25:55.171Z,100520.44
2023-01-12T02:27:18.696Z,100524.03
2023-01-12T02:28:35.640Z,100520.56
2023-01-12T02:29:55.754Z,100518.16
2023-01-12T02:31:16.572Z,100527.75
2023-01-12T02:32:24.832Z,100523.19
2023-01-12T02:33:59.211Z,100530.50
2023-01-12T02:35:30.758Z,100516.41
2023-01-12T02:36:59.201Z,100520.00
2023-01-12T02:38:33.631Z,100510.25
2023-01-12T02:40:00.512Z,100506.59
2023-01-12T02:41:50.397Z,100506.63
2023-01-12T02:43:14.987Z,100504.66
2023-01-12T02:44:33.551Z,100500.16
2023-01-12T02:45:47.619Z,100494.81
2023-01-12T02:46:52.095Z,100496.75
2023-01-12T02:48:06.193Z,100491.63
2023-01-12T02:49:14.919Z,100489.06
2023-01-12T02:50:29.097Z,100490.75
2023-01-12T02:51:46.094Z,100484.59
2023-01-12T02:52:55.300Z,100481.03
2023-01-12T02:54:06.123Z,100477.47
2023-01-12T02:55:10.492Z,100481.88
2023-01-12T02:56:18.608Z,100481.81
2023-01-12T02:57:23.688Z,100482.84
2023-01-12T02:58:29.518Z,100479.28
2023-01-12T02:59:34.952Z,100477.53
2023-01-12T03:00:39.004Z,100476.56
2023-01-12T03:01:42.902Z,100469.47
2023-01-12T03:02:45.198Z,100466.81
2023-01-12T03:03:49.956Z,100463.22
2023-01-12T03:04:53.184Z,100464.91
2023-01-12T03:05:59.960Z,100472.06
2023-01-12T03:07:02.050Z,100471.00
2023-01-12T03:08:05.643Z,100470.97
2023-01-12T03:09:08.708Z,100465.75
2023-01-12T03:10:16.982Z,100472.75
2023-01-12T03:11:22.822Z,100473.78
2023-01-12T03:12:32.559Z,100470.38
2023-01-12T03:13:39.798Z,100472.00
2023-01-12T03:14:47.921Z,100471.13
2023-01-12T03:15:54.138Z,100471.25
2023-01-12T03:16:56.970Z,100463.16
2023-01-12T03:18:03.598Z,100468.22
2023-01-12T03:19:09.873Z,100470.84
2023-01-12T03:20:15.888Z,100468.31
2023-01-12T03:21:30.448Z,100461.25
2023-01-12T03:22:36.500Z,100469.19
2023-01-12T03:23:47.767Z,100463.78
2023-01-12T03:25:02.366Z,100469.19
2023-01-12T03:26:07.738Z,100466.50
2023-01-12T03:27:26.418Z,100467.38
2023-01-12T03:28:34.459Z,100475.38
2023-01-12T03:29:58.921Z,100459.34
2023-01-12T03:31:09.034Z,100470.06
2023-01-12T03:32:11.802Z,100466.56
2023-01-12T03:33:13.972Z,100458.56
2023-01-12T03:34:16.349Z,100470.16
2023-01-12T03:35:24.255Z,100458.53
2023-01-12T03:36:41.864Z,100450.69
2023-01-12T03:38:30.413Z,100453.38
2023-01-12T03:39:48.655Z,100460.56
2023-01-12T03:41:02.743Z,100461.38
2023-01-12T03:42:07.972Z,100465.97
2023-01-12T03:43:15.369Z,100456.34
2023-01-12T03:44:28.756Z,100456.94
2023-01-12T03:45:49.217Z,100465.56
2023-01-12T03:46:58.082Z,100463.84
2023-01-12T03:48:09.459Z,100454.03
2023-01-12T03:49:18.997Z,100450.41
2023-01-12T03:50:27.358Z,100457.47
2023-01-12T03:51:37.163Z,100457.56
2023-01-12T03:52:43.010Z,100452.28
2023-01-12T03:53:49.615Z,100453.22
2023-01-12T03:54:56.800Z,100443.41
2023-01-12T03:56:04.450Z,100454.97
2023-01-12T03:57:09.225Z,100449.44
2023-01-12T03:58:11.652Z,100461.84
2023-01-12T03:59:14.532Z,100450.09
2023-01-12T04:00:19.251Z,100449.91
2023-01-12T04:01:21.920Z,100449.88
2023-01-12T04:02:24.291Z,100450.53
2023-01-12T04:03:26.514Z,100442.47
2023-01-12T04:04:29.130Z,100445.09
2023-01-12T04:05:31.509Z,100446.22
2023-01-12T04:06:33.673Z,100446.25
2023-01-12T04:07:35.812Z,100447.97
2023-01-12T04:08:37.997Z,100447.09
2023-01-12T04:09:40.345Z,100443.47
2023-01-12T04:10:42.856Z,100445.06
2023-01-12T04:12:03.801Z,100452.06
2023-01-12T04:13:06.198Z,100452.78
2023-01-12T04:14:08.360Z,100445.69
2023-01-12T04:15:10.969Z,100445.47
2023-01-12T04:16:13.685Z,100445.44
2023-01-12T04:17:16.506Z,100442.81
2023-01-12T04:18:18.656Z,100440.03
2023-01-12T04:19:20.798Z,100434.72
2023-01-12T04:20:23.511Z,100434.63
2023-01-12T04:21:43.904Z,100430.06
2023-01-12T04:22:46.774Z,100424.59
2023-01-12T04:23:48.933Z,100428.94
2023-01-12T04:24:51.155Z,100428.88
2023-01-12T04:25:53.767Z,100422.53
2023-01-12T04:26:55.931Z,100424.41
2023-01-12T04:28:02.681Z,100423.22
2023-01-12T04:29:05.221Z,100417.91
2023-01-12T04:30:08.187Z,100427.47
2023-01-12T04:31:10.865Z,100422.19
2023-01-12T04:32:13.055Z,100414.19
2023-01-12T04:33:15.270Z,100417.97
2023-01-12T04:34:17.659Z,100417.03
2023-01-12T04:35:19.867Z,100409.81
2023-01-12T04:36:22.300Z,100414.31
2023-01-12T04:37:24.526Z,100412.53
2023-01-12T04:38:26.688Z,100415.31
2023-01-12T04:39:29.540Z,100416.06
2023-01-12T04:40:31.707Z,100416.75
2023-01-12T04:41:34.123Z,100412.13
2023-01-12T04:42:55.394Z,100417.47
2023-01-12T04:43:57.576Z,100418.41
2023-01-12T04:44:59.958Z,100417.63
2023-01-12T04:46:10.789Z,100415.78
2023-01-12T04:47:12.830Z,100415.78
2023-01-12T04:48:16.413Z,100409.75
2023-01-12T04:49:18.662Z,100412.31
2023-01-12T04:50:21.021Z,100406.00
2023-01-12T04:51:23.398Z,100421.06
2023-01-12T04:52:25.599Z,100415.75
2023-01-12T04:53:28.484Z,100415.03
2023-01-12T04:54:30.617Z,100405.09
2023-01-12T04:55:35.457Z,100404.19
2023-01-12T04:56:37.932Z,100406.97
2023-01-12T04:57:40.203Z,100415.69
2023-01-12T04:58:42.558Z,100404.38
2023-01-12T04:59:44.760Z,100402.44
2023-01-12T05:00:46.984Z,100415.63
2023-01-12T05:01:49.536Z,100415.50
2023-01-12T05:02:58.120Z,100414.66
2023-01-12T05:04:03.371Z,100420.75
2023-01-12T05:05:06.314Z,100410.97
2023-01-12T05:06:09.007Z,100399.66
2023-01-12T05:07:11.575Z,100402.25
2023-01-12T05:08:33.378Z,100405.03
2023-01-12T05:09:54.024Z,100401.41
2023-01-12T05:10:58.198Z,100400.84
2023-01-12T05:12:01.367Z,100398.78
2023-01-12T05:13:03.573Z,100402.13
2023-01-12T05:14:06.026Z,100404.91
2023-01-12T05:15:10.905Z,100398.78
2023-01-12T05:16:18.177Z,100401.59
2023-01-12T05:17:20.648Z,100396.84
2023-01-12T05:18:23.236Z,100397.81
2023-01-12T05:19:25.431Z,100406.63
2023-01-12T05:20:27.767Z,100401.13
2023-01-12T05:21:30.255Z,100407.34
2023-01-12T05:22:32.671Z,100395.13
2023-01-12T05:23:34.887Z,100398.41
2023-01-12T05:24:37.696Z,100399.22
2023-01-12T05:25:39.857Z,100392.88
2023-01-12T05:26:42.214Z,100395.41
2023-01-12T05:27:44.606Z,100393.72
2023-01-12T05:28:50.945Z,100394.41
2023-01-12T05:29:53.141Z,100400.66
2023-01-12T05:30:55.471Z,100399.88
2023-01-12T05:31:57.885Z,100395.38
2023-01-12T05:33:00.241Z,100393.72
2023-01-12T05:34:02.437Z,100392.88
2023-01-12T05:35:08.699Z,100391.94
2023-01-12T05:36:13.707Z,100385.97
2023-01-12T05:37:16.138Z,100382.25
2023-01-12T05:38:18.560Z,100375.94
2023-01-12T05:39:21.830Z,100377.59
2023-01-12T05:40:24.869Z,100381.09
2023-01-12T05:41:27.213Z,100377.69
2023-01-12T05:42:48.674Z,100378.53
2023-01-12T05:43:51.226Z,100376.72
2023-01-12T05:44:53.607Z,100381.91
2023-01-12T05:45:55.784Z,100378.75
2023-01-12T05:46:57.975Z,100376.00
2023-01-12T05:48:02.342Z,100377.84
2023-01-12T05:49:04.540Z,100375.88
2023-01-12T05:50:07.048Z,100381.22
2023-01-12T05:51:11.432Z,100383.06
2023-01-12T05:52:13.596Z,100377.69
2023-01-12T05:53:15.992Z,100383.06
2023-01-12T05:54:18.146Z,100378.59
2023-01-12T05:55:20.517Z,100384.19
2023-01-12T05:56:25.935Z,100382.66
2023-01-12T05:57:31.689Z,100370.13
2023-01-12T05:58:34.446Z,100371.63
2023-01-12T05:59:36.612Z,100371.78
2023-01-12T06:00:38.761Z,100378.75
2023-01-12T06:01:41.207Z,100367.13
2023-01-12T06:02:43.403Z,100373.44
2023-01-12T06:03:50.886Z,100372.34
2023-01-12T06:04:53.148Z,100370.38
2023-01-12T06:05:55.934Z,100362.50
2023-01-12T06:06:58.344Z,100362.53
2023-01-12T06:08:01.525Z,100363.41
2023-01-12T06:09:04.655Z,100368.69
2023-01-12T06:10:07.399Z,100366.00
2023-01-12T06:11:29.523Z,100370.38
2023-01-12T06:12:50.456Z,100361.59
2023-01-12T06:13:58.607Z,100365.16
2023-01-12T06:15:00.803Z,100368.69
2023-01-12T06:16:05.673Z,100366.09
2023-01-12T06:17:07.893Z,100371.69
2023-01-12T06:18:10.253Z,100368.28
2023-01-12T06:19:13.233Z,100369.88
2023-01-12T06:20:17.272Z,100364.47
2023-01-12T06:21:19.801Z,100368.84
2023-01-12T06:22:21.992Z,100366.22
2023-01-12T06:23:35.444Z,100362.69
2023-01-12T06:24:38.276Z,100358.94
2023-01-12T06:25:40.414Z,100358.25
2023-01-12T06:26:45.158Z,100350.28
2023-01-12T06:27:47.400Z,100363.41
2023-01-12T06:28:49.885Z,100361.59
2023-01-12T06:29:52.335Z,100358.91
2023-01-12T06:30:59.357Z,100357.22
2023-01-12T06:32:01.794Z,100353.56
2023-01-12T06:33:04.073Z,100352.75
2023-01-12T06:34:07.992Z,100353.28
2023-01-12T06:35:18.971Z,100359.47
2023-01-12T06:36:21.644Z,100363.84
2023-01-12T06:37:24.697Z,100360.31
2023-01-12T06:38:29.350Z,100360.16
2023-01-12T06:39:31.803Z,100368.41
2023-01-12T06:40:34.175Z,100360.34
2023-01-12T06:41:55.238Z,100369.28
2023-01-12T06:42:57.612Z,100363.16
2023-01-12T06:44:00.159Z,100365.78
2023-01-12T06:45:05.625Z,100371.09
2023-01-12T06:46:07.897Z,100374.88
2023-01-12T06:47:10.074Z,100369.47
2023-01-12T06:48:12.428Z,100363.50
2023-01-12T06:49:16.578Z,100367.09
2023-01-12T06:50:19.069Z,100366.22
2023-01-12T06:51:21.254Z,100373.38
2023-01-12T06:52:26.107Z,100374.28
2023-01-12T06:53:28.490Z,100371.50
2023-01-12T06:54:30.967Z,100376.88
2023-01-12T06:55:33.448Z,100370.81
2023-01-12T06:56:35.639Z,100375.91
2023-01-12T06:57:37.815Z,100369.78
2023-01-12T06:58:43.254Z,100374.28
2023-01-12T06:59:45.758Z,100371.50
2023-01-12T07:00:48.139Z,100368.50
2023-01-12T07:01:50.626Z,100369.56
2023-01-12T07:02:52.931Z,100359.00
2023-01-12T07:03:55.094Z,100367.91
2023-01-12T07:04:57.464Z,100372.34
2023-01-12T07:06:00.395Z,100371.50
2023-01-12T07:07:02.613Z,100370.53
2023-01-12T07:08:05.156Z,100367.13
2023-01-12T07:09:07.363Z,100369.59
2023-01-12T07:10:11.728Z,100373.91
2023-01-12T07:11:15.311Z,100363.38
2023-01-12T07:12:17.553Z,100368.50
2023-01-12T07:13:19.839Z,100371.13
2023-01-12T07:14:21.996Z,100368.41
2023-01-12T07:15:24.411Z,100361.16
2023-01-12T07:16:26.760Z,100357.69
2023-01-12T07:17:28.928Z,100361.44
2023-01-12T07:18:31.321Z,100362.78
2023-01-12T07:19:33.479Z,100360.75
2023-01-12T07:20:35.954Z,100353.53
2023-01-12T07:21:38.532Z,100357.84
2023-01-12T07:22:40.757Z,100360.50
2023-01-12T07:23:43.783Z,100360.53
2023-01-12T07:24:46.034Z,100361.44
2023-01-12T07:25:48.421Z,100362.00
2023-01-12T07:26:51.183Z,100356.00
2023-01-12T07:27:58.354Z,100363.09
2023-01-12T07:29:00.735Z,100360.47
2023-01-12T07:30:04.345Z,100359.47
2023-01-12T07:31:06.874Z,100362.97
2023-01-12T07:32:09.406Z,100359.28
2023-01-12T07:33:14.161Z,100354.78
2023-01-12T07:34:16.857Z,100358.31
2023-01-12T07:35:19.926Z,100349.41
2023-01-12T07:36:22.344Z,100354.94
2023-01-12T07:37:24.725Z,100351.25
2023-01-12T07:38:28.143Z,100351.69
2023-01-12T07:39:30.622Z,100351.81
2023-01-12T07:40:33.682Z,100338.41
2023-01-12T07:41:54.401Z,100346.31
2023-01-12T07:43:09.070Z,100346.91
2023-01-12T07:44:11.685Z,100341.53
2023-01-12T07:45:14.140Z,100346.69
2023-01-12T07:46:16.319Z,100342.25
2023-01-12T07:47:18.700Z,100343.22
2023-01-12T07:48:22.411Z,100342.47
2023-01-12T07:49:24.592Z,100354.91
2023-01-12T07:50:27.904Z,100344.81
2023-01-12T07:51:31.301Z,100348.41
2023-01-12T07:52:33.944Z,100349.31
2023-01-12T07:53:36.243Z,100344.84
2023-01-12T07:54:38.636Z,100346.06
2023-01-12T07:55:43.683Z,100344.84
2023-01-12T07:56:46.021Z,100341.31
2023-01-12T07:57:55.412Z,100346.47
2023-01-12T07:58:57.729Z,100350.69
2023-01-12T08:00:00.153Z,100339.09
2023-01-12T08:01:02.643Z,100346.66
2023-01-12T08:02:05.960Z,100348.28
2023-01-12T08:03:10.673Z,100343.72
2023-01-12T08:04:13.480Z,100340.91
2023-01-12T08:05:15.973Z,100339.38
2023-01-12T08:06:18.485Z,100341.13
2023-01-12T08:07:20.645Z,100342.97
2023-01-12T08:08:23.158Z,100343.91
2023-01-12T08:09:25.546Z,100341.03
2023-01-12T08:10:27.970Z,100341.94
2023-01-12T08:11:30.185Z,100340.16
2023-01-12T08:12:32.591Z,100349.88
2023-01-12T08:13:35.425Z,100347.13
2023-01-12T08:14:39.200Z,100345.09
2023-01-12T08:15:46.555Z,100346.78
2023-01-12T08:16:49.799Z,100342.25
2023-01-12T08:17:57.162Z,100351.16
2023-01-12T08:19:07.021Z,100346.34
2023-01-12T08:20:17.586Z,100350.81
2023-01-12T08:21:25.245Z,100342.63
2023-01-12T08:22:34.026Z,100346.97
2023-01-12T08:23:42.320Z,100340.03
2023-01-12T08:24:57.646Z,100331.00
2023-01-12T08:26:04.818Z,100322.94
2023-01-12T08:27:08.617Z,100319.09
2023-01-12T08:28:16.013Z,100326.41
2023-01-12T08:29:29.807Z,100322.75
2023-01-12T08:30:32.258Z,100322.81
2023-01-12T08:31:34.457Z,100312.66
2023-01-12T08:32:37.344Z,100318.53
2023-01-12T08:33:39.919Z,100312.25
2023-01-12T08:34:43.779Z,100315.66
2023-01-12T08:35:47.351Z,100314.84
2023-01-12T08:36:49.660Z,100322.88
2023-01-12T08:37:52.149Z,100323.91
2023-01-12T08:38:55.960Z,100308.34
2023-01-12T08:39:58.538Z,100312.25
2023-01-12T08:41:19.596Z,100323.53
2023-01-12T08:42:26.436Z,100323.00
2023-01-12T08:43:48.225Z,100326.53
2023-01-12T08:44:50.616Z,100316.63
2023-01-12T08:45:53.152Z,100318.47
2023-01-12T08:46:55.396Z,100316.25
2023-01-12T08:47:57.617Z,100311.88
2023-01-12T08:49:00.058Z,100324.38
2023-01-12T08:50:02.939Z,100320.94
2023-01-12T08:51:08.164Z,100311.22
2023-01-12T08:52:10.368Z,100309.16
2023-01-12T08:53:12.655Z,100315.13
2023-01-12T08:54:17.034Z,100317.75
2023-01-12T08:55:19.191Z,100313.22
2023-01-12T08:56:21.564Z,100314.63
2023-01-12T08:57:23.793Z,100320.53
2023-01-12T08:58:26.133Z,100315.19
2023-01-12T08:59:28.308Z,100311.72
2023-01-12T09:00:30.858Z,100312.66
2023-01-12T09:01:34.096Z,100310.91
2023-01-12T09:02:36.554Z,100316.91
2023-01-12T09:03:39.536Z,100319.44
2023-01-12T09:04:42.223Z,100310.59
2023-01-12T09:05:45.965Z,100315.03
2023-01-12T09:06:48.544Z,100309.38
2023-01-12T09:07:52.164Z,100312.00
2023-01-12T09:08:59.184Z,100306.59
2023-01-12T09:10:01.354Z,100306.66
2023-01-12T09:11:05.807Z,100311.19
2023-01-12T09:12:07.971Z,100306.69
2023-01-12T09:13:15.586Z,100304.72
2023-01-12T09:14:18.070Z,100299.53
2023-01-12T09:15:20.238Z,100299.44
2023-01-12T09:16:23.127Z,100284.63
2023-01-12T09:17:26.200Z,100290.50
2023-01-12T09:18:28.345Z,100291.94
2023-01-12T09:19:30.820Z,100290.59
2023-01-12T09:20:34.199Z,100286.09
2023-01-12T09:21:39.322Z,100283.66
2023-01-12T09:22:41.537Z,100286.16
2023-01-12T09:23:44.241Z,100279.34
2023-01-12T09:24:46.762Z,100275.69
2023-01-12T09:25:48.928Z,100276.50
2023-01-12T09:26:51.568Z,100276.97
2023-01-12T09:27:53.770Z,100271.78
2023-01-12T09:28:58.188Z,100270.72
2023-01-12T09:30:00.542Z,100269.56
2023-01-12T09:31:04.644Z,100262.53
2023-01-12T09:32:06.988Z,100266.19
2023-01-12T09:33:09.190Z,100250.38
2023-01-12T09:34:12.072Z,100258.38
2023-01-12T09:35:14.923Z,100262.53
2023-01-12T09:36:20.543Z,100258.28
2023-01-12T09:37:22.917Z,100267.63
2023-01-12T09:38:25.132Z,100256.50
2023-01-12T09:39:28.839Z,100251.63
2023-01-12T09:40:31.402Z,100257.19
2023-01-12T09:41:57.370Z,100252.56
2023-01-12T09:43:18.735Z,100251.09
2023-01-12T09:44:50.799Z,100244.94
2023-01-12T09:46:12.207Z,100249.44
2023-01-12T09:47:32.732Z,100254.66
2023-01-12T09:48:35.161Z,100243.69
2023-01-12T09:49:46.785Z,100242.16
2023-01-12T09:51:05.852Z,100243.41
2023-01-12T09:52:17.192Z,100245.06
2023-01-12T09:53:28.952Z,100244.66
2023-01-12T09:54:34.792Z,100248.00
2023-01-12T09:55:46.809Z,100243.72
2023-01-12T09:57:01.840Z,100241.41
2023-01-12T09:58:37.935Z,100241.03
2023-01-12T09:59:46.181Z,100231.13
2023-01-12T10:00:54.211Z,100234.75
2023-01-12T10:01:57.392Z,100229.47
2023-01-12T10:03:09.940Z,100229.22
2023-01-12T10:04:12.546Z,100228.66
2023-01-12T10:05:50.616Z,100234.59
2023-01-12T10:06:52.907Z,100236.50
2023-01-12T10:07:56.418Z,100220.75
2023-01-12T10:09:02.143Z,100218.38
2023-01-12T10:10:04.670Z,100205.03
2023-01-12T10:11:26.139Z,100202.16
2023-01-12T10:12:37.185Z,100217.81
2023-01-12T10:14:03.875Z,100212.22
2023-01-12T10:15:36.061Z,100220.56
2023-01-12T10:16:59.205Z,100217.72
2023-01-12T10:18:15.953Z,100208.88
2023-01-12T10:19:38.562Z,100221.41
2023-01-12T10:20:43.791Z,100209.59
2023-01-12T10:21:47.186Z,100214.47
2023-01-12T10:22:54.556Z,100216.34
2023-01-12T10:23:56.915Z,100213.50
2023-01-12T10:24:59.570Z,100211.63
2023-01-12T10:26:15.566Z,100214.81
2023-01-12T10:27:17.756Z,100208.75
2023-01-12T10:28:30.073Z,100212.09
2023-01-12T10:29:32.966Z,100210.63
2023-01-12T10:30:39.969Z,100211.50
2023-01-12T10:31:42.295Z,100219.75
2023-01-12T10:32:44.716Z,100201.63
2023-01-12T10:34:08.591Z,100209.53
2023-01-12T10:35:17.849Z,100206.06
2023-01-12T10:36:20.727Z,100208.75
2023-01-12T10:37:22.937Z,100205.84
2023-01-12T10:38:31.577Z,100201.34
2023-01-12T10:39:42.666Z,100197.13
2023-01-12T10:41:01.617Z,100186.34
2023-01-12T10:42:56.682Z,100193.00
2023-01-12T10:43:58.835Z,100190.16
2023-01-12T10:45:16.066Z,100178.00
2023-01-12T10:46:24.181Z,100187.59
2023-01-12T10:47:26.404Z,100180.72
2023-01-12T10:48:28.603Z,100183.41
2023-01-12T10:49:30.790Z,100184.50
2023-01-12T10:50:35.132Z,100177.31
2023-01-12T10:51:48.010Z,100165.56
2023-01-12T10:52:56.219Z,100183.09
2023-01-12T10:54:18.045Z,100164.50
2023-01-12T10:55:24.263Z,100163.50
2023-01-12T10:56:32.327Z,100160.81
2023-01-12T10:57:34.799Z,100164.97
2023-01-12T10:58:36.984Z,100159.72
2023-01-12T10:59:40.461Z,100152.16
2023-01-12T11:00:48.740Z,100160.13
2023-01-12T11:02:13.607Z,100143.22
2023-01-12T11:03:37.567Z,100150.22
2023-01-12T11:04:46.026Z,100157.84
2023-01-12T11:05:48.216Z,100134.72
2023-01-12T11:07:02.292Z,100135.75
2023-01-12T11:08:38.602Z,100143.94
2023-01-12T11:09:43.012Z,100138.97
2023-01-12T11:10:45.413Z,100142.97
2023-01-12T11:11:56.383Z,100136.81
2023-01-12T11:13:04.497Z,100134.41
2023-01-12T11:14:22.656Z,100132.09
2023-01-12T11:15:28.519Z,100132.31
2023-01-12T11:16:49.328Z,100135.91
2023-01-12T11:18:03.683Z,100125.38
2023-01-12T11:19:23.800Z,100117.16
2023-01-12T11:20:38.034Z,100118.91
2023-01-12T11:21:43.684Z,100129.19
2023-01-12T11:22:48.245Z,100123.75
2023-01-12T11:23:54.598Z,100128.06
2023-01-12T11:25:00.380Z,100117.28
2023-01-12T11:26:13.560Z,100112.16
2023-01-12T11:27:18.727Z,100119.81
2023-01-12T11:28:20.832Z,100109.47
2023-01-12T11:29:31.308Z,100125.31
2023-01-12T11:30:41.478Z,100118.16
2023-01-12T11:31:45.880Z,100110.41
2023-01-12T11:32:56.732Z,100116.28
2023-01-12T11:34:02.062Z,100107.13
2023-01-12T11:35:11.066Z,100106.22
2023-01-12T11:36:22.646Z,100109.84
2023-01-12T11:37:24.999Z,100107.84
2023-01-12T11:38:49.313Z,100103.44
2023-01-12T11:40:03.352Z,100103.66
2023-01-12T11:41:10.183Z,100094.63
2023-01-12T11:42:38.990Z,100104.13
2023-01-12T11:44:15.232Z,100096.50
2023-01-12T11:45:25.800Z,100090.47
2023-01-12T11:46:30.342Z,100098.19
2023-01-12T11:47:43.258Z,100090.59
2023-01-12T11:49:02.009Z,100099.44
2023-01-12T11:50:36.322Z,100092.63
2023-01-12T11:51:39.611Z,100086.16
2023-01-12T11:52:42.234Z,100086.34
2023-01-12T11:53:44.919Z,100085.56
2023-01-12T11:54:47.402Z,100098.69
2023-01-12T11:56:12.738Z,100083.78
2023-01-12T11:57:41.649Z,100091.84
2023-01-12T11:58:52.154Z,100089.81
2023-01-12T12:00:15.935Z,100091.63
2023-01-12T12:01:22.886Z,100082.00
2023-01-12T12:02:46.286Z,100090.50
2023-01-12T12:04:18.013Z,100078.53
2023-01-12T12:05:50.692Z,100075.28
2023-01-12T12:07:01.996Z,100082.88
2023-01-12T12:08:27.190Z,100083.78
2023-01-12T12:09:44.363Z,100075.34
2023-01-12T12:10:46.644Z,100072.94
2023-01-12T12:12:05.647Z,100062.03
2023-01-12T12:13:29.336Z,100070.19
2023-01-12T12:14:43.721Z,100065.03
2023-01-12T12:16:30.614Z,100073.06
2023-01-12T12:17:52.856Z,100067.34
2023-01-12T12:19:25.475Z,100069.81
2023-01-12T12:20:48.921Z,100067.19
2023-01-12T12:22:05.199Z,100070.09
2023-01-12T12:23:25.980Z,100066.06
2023-01-12T12:25:05.387Z,100064.72
2023-01-12T12:26:24.304Z,100061.75
2023-01-12T12:27:44.743Z,100057.00
2023-01-12T12:29:05.975Z,100055.66
2023-01-12T12:30:26.473Z,100058.56
2023-01-12T12:31:53.028Z,100054.72
2023-01-12T12:33:19.455Z,100054.72
2023-01-12T12:34:31.065Z,100056.78
2023-01-12T12:35:57.968Z,100048.19
2023-01-12T12:37:32.042Z,100054.41
2023-01-12T12:39:09.021Z,100060.72
2023-01-12T12:40:30.104Z,100048.47
2023-01-12T12:41:59.785Z,100051.75
2023-01-12T12:43:35.561Z,100060.97
2023-01-12T12:45:11.834Z,100052.59
2023-01-12T12:46:31.989Z,100051.72
2023-01-12T12:47:51.195Z,100046.72
2023-01-12T12:49:07.513Z,100054.22
2023-01-12T12:50:18.494Z,100035.00
2023-01-12T12:51:22.974Z,100053.75
2023-01-12T12:52:30.302Z,100051.94
2023-01-12T12:53:44.571Z,100047.28